Time;durP1;ratioP1;P1;durP2;ratioP2;P2;SDS_P1;SDS_P2;PMS_P1;PMS_P2;Temp;Humidity;BMP_temperature;BMP_pressure;BME280_temperature;BME280_humidity;BME280_pressure;Samples;Min_cycle;Max_cycle;Signal;HPM_P1;HPM_P2
2021/05/24 00:00:09;;;;;;;5.37;2.50;;;11.60;99.90;;;;;;6293288;22;20557;-76
2021/05/24 00:02:36;;;;;;;4.90;2.47;;;11.60;99.90;;;;;;6293575;22;20221;-76
2021/05/24 00:05:04;;;;;;;3.27;2.03;;;11.50;99.90;;;;;;6293576;22;20168;-76
2021/05/24 00:07:30;;;;;;;2.73;2.40;;;11.50;99.90;;;;;;6292542;22;20184;-76
2021/05/24 00:09:56;;;;;;;3.90;2.53;;;11.50;99.90;;;;;;6294606;22;20176;-77
2021/05/24 00:12:26;;;;;;;4.60;2.60;;;11.50;99.90;;;;;;6294248;22;20225;-78
2021/05/24 00:14:52;;;;;;;3.63;2.37;;;11.50;99.90;;;;;;6292836;22;20199;-81
2021/05/24 00:17:18;;;;;;;5.33;2.60;;;11.50;99.90;;;;;;6293669;22;20198;-79
2021/05/24 00:19:46;;;;;;;6.77;3.13;;;11.50;99.90;;;;;;6293226;22;20164;-81
2021/05/24 00:22:13;;;;;;;4.00;2.30;;;11.50;99.90;;;;;;6293634;22;20199;-78
2021/05/24 00:24:39;;;;;;;3.93;2.43;;;11.50;99.90;;;;;;6293746;22;20175;-78
2021/05/24 00:27:06;;;;;;;2.93;2.30;;;11.50;99.90;;;;;;6293311;22;20164;-75
2021/05/24 00:29:32;;;;;;;9.43;2.60;;;11.50;99.90;;;;;;6293935;22;20161;-76
2021/05/24 00:31:58;;;;;;;4.43;2.57;;;11.50;99.90;;;;;;6293850;22;20242;-77
2021/05/24 00:34:25;;;;;;;4.63;2.50;;;11.50;99.90;;;;;;6293630;22;20172;-77
2021/05/24 00:36:52;;;;;;;2.20;2.00;;;11.50;99.90;;;;;;6294198;22;20204;-76
2021/05/24 00:39:18;;;;;;;2.90;2.20;;;11.50;99.90;;;;;;6294316;22;20176;-75
2021/05/24 00:41:45;;;;;;;5.23;2.23;;;11.50;99.90;;;;;;6293879;22;20183;-76
2021/05/24 00:44:11;;;;;;;4.77;2.27;;;11.50;99.90;;;;;;6294426;22;20168;-80
2021/05/24 00:46:38;;;;;;;3.63;2.47;;;11.60;99.90;;;;;;6294463;22;20168;-78
2021/05/24 00:49:05;;;;;;;6.30;2.27;;;11.60;99.90;;;;;;6293542;22;20172;-78
2021/05/24 00:51:32;;;;;;;5.30;2.67;;;11.60;99.90;;;;;;6293495;22;20172;-76
2021/05/24 00:54:00;;;;;;;5.70;2.90;;;11.60;99.90;;;;;;6295782;22;20438;-77
2021/05/24 00:56:26;;;;;;;4.33;2.13;;;11.60;99.90;;;;;;6295346;22;20191;-75
2021/05/24 00:58:53;;;;;;;4.93;2.23;;;11.60;99.90;;;;;;6296192;22;20168;-80
2021/05/24 01:01:19;;;;;;;4.10;2.00;;;11.60;99.90;;;;;;6296018;22;20246;-77
2021/05/24 01:03:46;;;;;;;3.17;2.10;;;11.70;99.90;;;;;;6295924;22;20208;-75
2021/05/24 01:06:13;;;;;;;2.50;1.70;;;11.70;99.90;;;;;;6296059;22;20814;-79
2021/05/24 01:08:39;;;;;;;4.70;2.03;;;11.70;99.90;;;;;;6296218;22;20185;-77
2021/05/24 01:11:08;;;;;;;3.77;2.03;;;11.70;99.90;;;;;;6295361;22;20171;-79
2021/05/24 01:13:35;;;;;;;2.23;2.03;;;11.70;99.90;;;;;;6296972;22;20168;-76
2021/05/24 01:16:01;;;;;;;3.47;1.87;;;11.70;99.90;;;;;;6296388;22;20172;-79
2021/05/24 01:18:28;;;;;;;8.33;2.10;;;11.70;99.90;;;;;;6294824;22;20199;-76
2021/05/24 01:20:54;;;;;;;6.43;2.10;;;11.70;99.90;;;;;;6296434;22;20237;-76
2021/05/24 01:23:26;;;;;;;2.87;1.60;;;11.70;99.90;;;;;;6297337;22;20176;-78
2021/05/24 01:25:53;;;;;;;4.03;1.97;;;11.70;99.90;;;;;;6295328;22;20540;-77
2021/05/24 01:28:21;;;;;;;3.17;1.80;;;11.70;99.90;;;;;;6295968;22;20172;-78
2021/05/24 01:30:49;;;;;;;3.10;2.57;;;11.60;99.90;;;;;;6294613;22;20211;-79
2021/05/24 01:33:17;;;;;;;2.43;1.70;;;11.60;99.90;;;;;;6296682;22;20552;-76
2021/05/24 01:35:43;;;;;;;6.30;1.87;;;11.60;99.90;;;;;;6295261;22;20283;-78
2021/05/24 01:38:11;;;;;;;2.80;1.90;;;11.50;99.90;;;;;;6295168;22;20180;-77
2021/05/24 01:40:38;;;;;;;2.50;1.60;;;11.50;99.90;;;;;;6296616;22;20176;-76
2021/05/24 01:43:05;;;;;;;3.87;1.60;;;11.50;99.90;;;;;;6295489;22;20441;-76
2021/05/24 01:45:32;;;;;;;2.40;1.83;;;11.50;99.90;;;;;;6294863;22;20533;-78
2021/05/24 01:47:59;;;;;;;3.40;2.00;;;11.40;99.90;;;;;;6295726;22;20172;-77
2021/05/24 01:50:25;;;;;;;5.83;2.37;;;11.40;99.90;;;;;;6294320;22;20577;-79
2021/05/24 01:52:52;;;;;;;7.00;2.20;;;11.40;99.90;;;;;;6294246;22;20234;-76
2021/05/24 01:55:18;;;;;;;6.03;2.33;;;11.40;99.90;;;;;;6295337;22;20190;-78
2021/05/24 01:57:45;;;;;;;4.53;1.83;;;11.30;99.90;;;;;;6295019;22;20237;-77
2021/05/24 02:00:15;;;;;;;2.50;1.70;;;11.30;99.90;;;;;;6294787;22;20199;-77
2021/05/24 02:02:43;;;;;;;4.30;2.47;;;11.30;99.90;;;;;;6295259;22;20175;-76
2021/05/24 02:05:12;;;;;;;3.27;2.20;;;11.30;99.90;;;;;;6295800;22;20233;-79
2021/05/24 02:07:39;;;;;;;4.33;2.30;;;11.30;99.90;;;;;;6294865;22;20192;-77
2021/05/24 02:10:07;;;;;;;3.47;1.87;;;11.30;99.90;;;;;;6295107;22;20175;-78
2021/05/24 02:12:33;;;;;;;5.27;2.60;;;11.30;99.90;;;;;;6294782;22;20226;-79
2021/05/24 02:15:01;;;;;;;6.00;2.70;;;11.20;99.90;;;;;;6294389;22;20565;-77
2021/05/24 02:17:27;;;;;;;4.27;2.43;;;11.30;99.90;;;;;;6295301;22;20203;-78
2021/05/24 02:19:54;;;;;;;3.13;2.23;;;11.30;99.90;;;;;;6295057;22;20176;-79
2021/05/24 02:22:20;;;;;;;4.37;3.00;;;11.20;99.90;;;;;;6296039;22;20179;-78
2021/05/24 02:24:46;;;;;;;4.50;2.53;;;11.20;99.90;;;;;;6295466;22;20210;-80
2021/05/24 02:27:13;;;;;;;3.70;2.30;;;11.20;99.90;;;;;;6295238;22;20175;-77
2021/05/24 02:29:41;;;;;;;5.60;2.87;;;11.20;99.90;;;;;;6295021;22;20171;-77
2021/05/24 02:32:09;;;;;;;7.00;2.93;;;11.20;99.90;;;;;;6295076;22;20751;-78
2021/05/24 02:34:35;;;;;;;7.70;3.10;;;11.20;99.90;;;;;;6295210;22;20250;-77
2021/05/24 02:37:02;;;;;;;4.00;2.87;;;11.20;99.90;;;;;;6294501;22;20208;-78
2021/05/24 02:39:28;;;;;;;3.73;2.40;;;11.20;99.90;;;;;;6295864;22;20230;-77
2021/05/24 02:41:55;;;;;;;5.77;2.50;;;11.20;99.90;;;;;;6294756;22;20176;-78
2021/05/24 02:44:21;;;;;;;5.10;2.50;;;11.20;99.90;;;;;;6294191;22;20175;-79
2021/05/24 02:46:48;;;;;;;4.93;2.20;;;11.30;99.90;;;;;;6294669;22;20526;-78
2021/05/24 02:49:15;;;;;;;2.60;2.23;;;11.30;99.90;;;;;;6294700;22;20175;-79
2021/05/24 02:51:41;;;;;;;4.53;2.43;;;11.30;99.90;;;;;;6294971;22;20729;-78
2021/05/24 02:54:08;;;;;;;4.43;2.70;;;11.30;99.90;;;;;;6294242;22;20168;-78
2021/05/24 02:56:35;;;;;;;5.30;3.00;;;11.30;99.90;;;;;;6293466;22;20209;-79
2021/05/24 02:59:02;;;;;;;5.37;3.03;;;11.30;99.90;;;;;;6294852;22;20176;-78
2021/05/24 03:01:30;;;;;;;3.87;2.60;;;11.30;99.90;;;;;;6295176;22;20195;-78
2021/05/24 03:03:58;;;;;;;7.07;2.80;;;11.30;99.90;;;;;;6293975;22;20172;-78
2021/05/24 03:06:25;;;;;;;3.33;2.93;;;11.30;99.90;;;;;;6295201;22;20338;-77
2021/05/24 03:08:51;;;;;;;4.17;3.10;;;11.30;99.90;;;;;;6294411;22;20835;-79
2021/05/24 03:11:18;;;;;;;5.37;3.37;;;11.30;99.90;;;;;;6294499;22;20182;-78
2021/05/24 03:13:44;;;;;;;5.50;2.70;;;11.20;99.90;;;;;;6295131;22;20180;-80
2021/05/24 03:16:11;;;;;;;6.03;3.33;;;11.20;99.90;;;;;;6294071;22;20182;-77
2021/05/24 03:18:38;;;;;;;5.30;2.60;;;11.20;99.90;;;;;;6294469;22;20199;-78
2021/05/24 03:21:04;;;;;;;6.40;3.23;;;11.20;99.90;;;;;;6294426;22;20172;-79
2021/05/24 03:23:31;;;;;;;4.17;2.77;;;11.30;99.90;;;;;;6293662;22;20183;-79
2021/05/24 03:25:58;;;;;;;4.30;3.23;;;11.30;99.90;;;;;;6293443;22;20217;-77
2021/05/24 03:28:24;;;;;;;5.80;3.47;;;11.20;99.90;;;;;;6295110;22;20172;-77
2021/05/24 03:30:50;;;;;;;3.27;2.87;;;11.20;99.90;;;;;;6294375;22;20179;-77
2021/05/24 03:33:17;;;;;;;3.70;2.93;;;11.20;99.90;;;;;;6295517;22;20176;-79
2021/05/24 03:35:43;;;;;;;5.33;2.70;;;11.10;99.90;;;;;;6296083;22;20200;-78
2021/05/24 03:38:09;;;;;;;6.90;2.43;;;11.10;99.90;;;;;;6294186;22;20262;-79
2021/05/24 03:40:36;;;;;;;6.10;2.53;;;11.10;99.90;;;;;;6295114;22;20645;-76
2021/05/24 03:43:03;;;;;;;4.70;2.90;;;11.10;99.90;;;;;;6295716;22;20172;-78
2021/05/24 03:45:32;;;;;;;3.73;2.40;;;11.00;99.90;;;;;;6293995;22;20619;-78
2021/05/24 03:47:58;;;;;;;5.47;2.40;;;11.00;99.90;;;;;;6294783;22;20168;-77
2021/05/24 03:50:25;;;;;;;4.67;2.80;;;11.00;99.90;;;;;;6293652;22;20191;-78
2021/05/24 03:52:51;;;;;;;2.63;2.43;;;11.00;99.90;;;;;;6293658;22;20176;-79
2021/05/24 03:55:18;;;;;;;3.73;2.67;;;11.00;99.90;;;;;;6294565;22;20187;-76
2021/05/24 03:57:46;;;;;;;5.30;2.27;;;10.90;99.90;;;;;;6294477;22;20188;-79
2021/05/24 04:00:13;;;;;;;2.83;2.00;;;10.90;99.90;;;;;;6294673;22;20178;-76
2021/05/24 04:02:40;;;;;;;4.57;2.20;;;10.90;99.90;;;;;;6294865;22;20211;-77
2021/05/24 04:05:13;;;;;;;3.93;1.90;;;10.90;99.90;;;;;;6294969;22;20172;-78
2021/05/24 04:07:40;;;;;;;2.53;1.90;;;10.90;99.90;;;;;;6294016;22;20241;-77
2021/05/24 04:10:07;;;;;;;3.57;1.57;;;10.90;99.90;;;;;;6294591;22;20345;-78
2021/05/24 04:12:33;;;;;;;3.83;1.90;;;10.90;99.90;;;;;;6294421;22;20175;-79
2021/05/24 04:15:01;;;;;;;2.80;1.90;;;10.90;99.90;;;;;;6295390;22;20171;-79
2021/05/24 04:17:29;;;;;;;4.57;1.90;;;10.90;99.90;;;;;;6294374;22;20249;-78
2021/05/24 04:19:55;;;;;;;2.33;2.00;;;10.90;99.90;;;;;;6294646;22;20169;-78
2021/05/24 04:22:22;;;;;;;3.10;1.77;;;10.90;99.90;;;;;;6295171;22;20179;-79
2021/05/24 04:24:48;;;;;;;3.23;2.07;;;10.90;99.90;;;;;;6293947;22;20168;-78
2021/05/24 04:27:14;;;;;;;3.80;2.30;;;10.90;99.90;;;;;;6295702;22;20175;-80
2021/05/24 04:29:40;;;;;;;3.00;1.93;;;10.90;99.90;;;;;;6296792;22;20203;-79
2021/05/24 04:32:08;;;;;;;2.50;2.03;;;10.90;99.90;;;;;;6298135;22;20199;-79
2021/05/24 04:34:34;;;;;;;3.30;2.47;;;10.80;99.90;;;;;;6295624;22;20174;-79
2021/05/24 04:37:01;;;;;;;2.50;2.00;;;10.80;99.90;;;;;;6297113;22;20203;-78
2021/05/24 04:39:27;;;;;;;3.33;2.30;;;10.90;99.90;;;;;;6296872;22;20172;-78
2021/05/24 04:41:53;;;;;;;4.87;2.57;;;10.90;99.90;;;;;;6296301;22;20172;-78
2021/05/24 04:44:20;;;;;;;4.67;2.87;;;10.80;99.90;;;;;;6296147;22;20165;-79
2021/05/24 04:46:46;;;;;;;5.63;2.70;;;10.80;99.90;;;;;;6296504;22;20191;-79
2021/05/24 04:49:14;;;;;;;5.10;3.13;;;10.80;99.90;;;;;;6296033;22;20172;-79
2021/05/24 04:51:40;;;;;;;5.37;2.70;;;10.80;99.90;;;;;;6297842;22;20176;-80
2021/05/24 04:54:07;;;;;;;4.17;2.53;;;10.90;99.90;;;;;;6297862;22;20578;-78
2021/05/24 04:56:33;;;;;;;6.60;3.10;;;10.90;99.90;;;;;;6296783;22;20237;-76
2021/05/24 04:59:00;;;;;;;4.23;2.90;;;10.90;99.90;;;;;;6297439;22;20179;-78
2021/05/24 05:01:26;;;;;;;5.90;2.80;;;10.90;99.90;;;;;;6296326;22;20687;-78
2021/05/24 05:03:53;;;;;;;3.90;2.90;;;10.90;99.90;;;;;;6295986;22;20172;-80
2021/05/24 05:06:20;;;;;;;3.23;2.40;;;10.90;99.90;;;;;;6296615;22;20196;-77
2021/05/24 05:08:47;;;;;;;3.63;2.60;;;10.90;99.90;;;;;;6294540;22;20172;-79
2021/05/24 05:11:13;;;;;;;3.67;2.57;;;10.90;99.90;;;;;;6296199;22;20424;-79
2021/05/24 05:13:40;;;;;;;4.43;2.63;;;10.90;99.90;;;;;;6295886;22;20176;-80
2021/05/24 05:16:06;;;;;;;2.83;2.37;;;10.90;99.90;;;;;;6295199;22;20178;-78
2021/05/24 05:18:33;;;;;;;3.53;2.23;;;10.90;99.90;;;;;;6296312;22;20196;-78
2021/05/24 05:21:00;;;;;;;4.97;2.13;;;10.90;99.90;;;;;;6269764;22;20225;-78
2021/05/24 05:23:27;;;;;;;4.87;2.07;;;10.90;99.90;;;;;;6295874;22;20172;-78
2021/05/24 05:25:53;;;;;;;4.73;2.30;;;10.90;99.90;;;;;;6296407;22;20460;-78
2021/05/24 05:28:21;;;;;;;2.97;1.70;;;10.90;99.90;;;;;;6296126;22;20225;-79
2021/05/24 05:30:47;;;;;;;5.43;2.40;;;10.90;99.90;;;;;;6295099;22;20207;-78
2021/05/24 05:33:14;;;;;;;3.20;2.00;;;10.90;99.90;;;;;;6296439;22;20757;-79
2021/05/24 05:35:41;;;;;;;10.73;2.70;;;10.90;99.90;;;;;;6296138;22;20164;-80
2021/05/24 05:38:07;;;;;;;2.13;1.87;;;10.90;99.90;;;;;;6294931;22;20260;-78
2021/05/24 05:40:34;;;;;;;2.70;1.73;;;10.90;99.90;;;;;;6296486;22;20175;-79
2021/05/24 05:43:01;;;;;;;3.63;1.70;;;10.90;99.90;;;;;;6295420;22;20226;-78
2021/05/24 05:45:27;;;;;;;4.13;1.40;;;10.90;99.90;;;;;;6295116;22;20176;-78
2021/05/24 05:47:54;;;;;;;3.80;1.30;;;10.90;99.90;;;;;;6296238;22;20875;-78
2021/05/24 05:50:21;;;;;;;2.63;1.50;;;10.90;99.90;;;;;;6296092;22;20245;-77
2021/05/24 05:52:48;;;;;;;2.80;1.53;;;10.90;99.90;;;;;;6294848;22;20168;-78
2021/05/24 05:55:14;;;;;;;2.90;1.73;;;10.90;99.90;;;;;;6296158;22;20183;-79
2021/05/24 05:57:41;;;;;;;3.10;1.80;;;10.90;99.90;;;;;;6295437;22;20195;-78
2021/05/24 06:00:09;;;;;;;1.17;1.07;;;10.90;99.90;;;;;;6294826;22;20234;-78
2021/05/24 06:02:35;;;;;;;2.20;1.27;;;10.90;99.90;;;;;;6295848;22;20179;-77
2021/05/24 06:05:01;;;;;;;1.50;1.40;;;10.90;99.90;;;;;;6294534;22;20172;-78
2021/05/24 06:07:27;;;;;;;3.97;1.90;;;10.90;99.90;;;;;;6294989;22;20195;-77
2021/05/24 06:09:54;;;;;;;2.10;1.60;;;10.90;99.90;;;;;;6295046;22;20176;-78
2021/05/24 06:12:20;;;;;;;3.47;1.47;;;10.90;99.90;;;;;;6294462;22;20168;-78
2021/05/24 06:14:47;;;;;;;2.30;1.30;;;10.90;99.90;;;;;;6295420;22;20172;-79
2021/05/24 06:17:14;;;;;;;2.50;1.20;;;10.90;99.90;;;;;;6295465;22;20635;-77
2021/05/24 06:19:40;;;;;;;2.77;1.50;;;10.90;99.90;;;;;;6295215;22;20183;-78
2021/05/24 06:22:06;;;;;;;4.93;1.30;;;10.90;99.90;;;;;;6294476;22;20156;-78
2021/05/24 06:24:32;;;;;;;1.90;1.30;;;10.90;99.90;;;;;;6295972;22;20172;-78
2021/05/24 06:26:59;;;;;;;2.87;1.23;;;10.90;99.90;;;;;;6294657;22;20178;-79
2021/05/24 06:29:26;;;;;;;4.07;1.33;;;11.00;99.90;;;;;;6296327;22;20172;-78
2021/05/24 06:31:54;;;;;;;3.60;1.40;;;11.10;99.90;;;;;;6295685;22;20208;-76
2021/05/24 06:34:20;;;;;;;2.73;1.23;;;11.10;99.90;;;;;;6294911;22;20175;-78
2021/05/24 06:36:47;;;;;;;3.13;1.33;;;11.10;99.90;;;;;;6295245;22;20176;-78
2021/05/24 06:39:13;;;;;;;2.57;1.37;;;11.10;99.90;;;;;;6294907;22;20386;-77
2021/05/24 06:41:40;;;;;;;2.23;1.40;;;11.10;99.90;;;;;;6294248;22;20172;-77
2021/05/24 06:44:07;;;;;;;2.20;1.30;;;11.20;99.90;;;;;;6295710;22;20253;-77
2021/05/24 06:46:33;;;;;;;1.43;1.10;;;11.20;99.90;;;;;;6295292;22;20636;-77
2021/05/24 06:49:00;;;;;;;2.67;1.30;;;11.20;99.90;;;;;;6293701;22;20172;-78
2021/05/24 06:51:26;;;;;;;2.83;1.27;;;11.20;99.90;;;;;;6293748;22;20175;-80
2021/05/24 06:53:53;;;;;;;2.83;1.30;;;11.20;99.90;;;;;;6294170;22;20176;-77
2021/05/24 06:56:19;;;;;;;2.37;1.10;;;11.20;99.90;;;;;;6294549;22;20168;-77
2021/05/24 06:58:45;;;;;;;1.47;1.20;;;11.20;99.90;;;;;;6295550;22;20211;-78
2021/05/24 07:01:12;;;;;;;2.40;1.60;;;11.20;99.90;;;;;;6294689;22;20485;-78
2021/05/24 07:03:38;;;;;;;2.13;1.30;;;11.20;99.90;;;;;;6295690;22;20222;-77
2021/05/24 07:06:05;;;;;;;2.03;1.30;;;11.30;99.90;;;;;;6295788;22;20199;-78
2021/05/24 07:08:32;;;;;;;3.43;1.50;;;11.30;99.90;;;;;;6294445;22;20164;-77
2021/05/24 07:10:58;;;;;;;3.53;1.20;;;11.30;99.90;;;;;;6294368;22;20186;-77
2021/05/24 07:13:25;;;;;;;1.50;1.00;;;11.30;99.90;;;;;;6294741;22;20171;-79
2021/05/24 07:15:51;;;;;;;2.20;1.73;;;11.30;99.90;;;;;;6294173;22;20164;-78
2021/05/24 07:18:19;;;;;;;1.87;1.40;;;11.40;99.90;;;;;;6295606;22;20191;-76
2021/05/24 07:20:45;;;;;;;2.97;1.50;;;11.40;99.90;;;;;;6295510;22;20226;-78
2021/05/24 07:23:13;;;;;;;4.23;1.30;;;11.40;99.90;;;;;;6294645;22;20176;-80
2021/05/24 07:25:40;;;;;;;1.37;1.20;;;11.40;99.90;;;;;;6294997;22;20225;-80
2021/05/24 07:28:06;;;;;;;3.60;1.53;;;11.40;99.90;;;;;;6296044;22;20736;-78
2021/05/24 07:30:32;;;;;;;2.20;1.10;;;11.50;99.90;;;;;;6295130;22;20223;-81
2021/05/24 07:32:59;;;;;;;1.53;1.20;;;11.40;99.90;;;;;;6237126;22;20504;-79
2021/05/24 07:35:25;;;;;;;2.50;1.70;;;11.50;99.90;;;;;;6296677;22;20647;-80
2021/05/24 07:37:51;;;;;;;3.40;1.53;;;11.50;99.90;;;;;;6292585;22;20196;-80
2021/05/24 07:40:19;;;;;;;4.70;1.53;;;11.50;99.90;;;;;;6295036;22;20176;-79
2021/05/24 07:42:46;;;;;;;2.83;1.60;;;11.50;99.90;;;;;;6294928;22;20571;-79
2021/05/24 07:45:13;;;;;;;1.60;1.50;;;11.50;99.90;;;;;;6295317;22;20247;-80
2021/05/24 07:47:39;;;;;;;2.80;1.93;;;11.60;99.90;;;;;;6295664;22;20176;-80
2021/05/24 07:50:09;;;;;;;3.33;1.77;;;11.60;99.90;;;;;;6285946;22;20176;-78
2021/05/24 07:52:35;;;;;;;3.27;1.80;;;11.70;99.90;;;;;;6295208;22;20171;-78
2021/05/24 07:55:02;;;;;;;1.83;1.50;;;11.70;99.90;;;;;;6296042;22;20176;-78
2021/05/24 07:57:30;;;;;;;4.13;1.67;;;11.70;99.90;;;;;;6294658;22;20192;-80
2021/05/24 07:59:56;;;;;;;2.23;1.90;;;11.70;99.90;;;;;;6295074;22;20175;-78
2021/05/24 08:02:22;;;;;;;4.80;1.70;;;11.80;99.90;;;;;;6294101;22;20172;-78
2021/05/24 08:04:50;;;;;;;2.47;1.73;;;11.70;99.90;;;;;;6292975;22;20493;-79
2021/05/24 08:07:17;;;;;;;2.83;1.83;;;11.80;99.90;;;;;;6294642;22;20188;-79
2021/05/24 08:09:43;;;;;;;2.77;1.90;;;11.80;99.90;;;;;;6293495;22;20172;-79
2021/05/24 08:12:11;;;;;;;2.80;1.73;;;11.80;99.90;;;;;;6293478;22;20176;-80
2021/05/24 08:14:39;;;;;;;3.20;1.80;;;11.80;99.90;;;;;;6294357;22;20178;-80
2021/05/24 08:17:05;;;;;;;3.13;1.73;;;11.90;99.90;;;;;;6293892;22;20215;-80
2021/05/24 08:19:31;;;;;;;2.73;1.83;;;11.90;99.90;;;;;;6293804;22;20180;-79
2021/05/24 08:21:58;;;;;;;4.87;2.20;;;12.00;99.90;;;;;;6294041;22;20254;-80
2021/05/24 08:24:24;;;;;;;8.07;2.33;;;12.00;99.90;;;;;;6291226;22;20183;-79
2021/05/24 08:26:50;;;;;;;3.27;2.03;;;12.00;99.90;;;;;;6293281;22;20221;-78
2021/05/24 08:29:17;;;;;;;2.90;2.23;;;12.10;99.90;;;;;;6293374;22;20429;-79
2021/05/24 08:31:44;;;;;;;3.37;2.50;;;12.10;99.90;;;;;;6293372;22;20204;-80
2021/05/24 08:34:11;;;;;;;4.23;3.17;;;12.20;99.90;;;;;;6292745;22;20616;-78
2021/05/24 08:36:37;;;;;;;3.03;2.27;;;12.20;99.90;;;;;;6294422;22;20230;-79
2021/05/24 08:39:04;;;;;;;2.90;2.33;;;12.20;99.90;;;;;;6293638;22;20196;-79
2021/05/24 08:41:33;;;;;;;4.40;2.13;;;12.10;99.90;;;;;;6292797;22;20486;-79
2021/05/24 08:44:00;;;;;;;3.03;2.40;;;12.20;99.90;;;;;;6293479;22;20176;-80
2021/05/24 08:46:27;;;;;;;3.33;2.70;;;12.20;99.90;;;;;;6293749;22;20551;-79
2021/05/24 08:48:55;;;;;;;3.87;2.50;;;12.20;99.90;;;;;;6292935;22;20172;-79
2021/05/24 08:51:21;;;;;;;2.63;2.43;;;12.10;99.90;;;;;;6293871;22;20172;-80
2021/05/24 08:53:47;;;;;;;4.60;2.50;;;12.20;99.90;;;;;;6293360;22;20203;-80
2021/05/24 08:56:14;;;;;;;3.93;2.33;;;12.20;99.90;;;;;;6294451;22;20179;-79
2021/05/24 08:58:40;;;;;;;3.73;2.73;;;12.20;99.90;;;;;;6292495;22;20196;-79
2021/05/24 09:01:06;;;;;;;3.57;2.27;;;12.20;99.90;;;;;;6292081;22;20172;-80
2021/05/24 09:03:34;;;;;;;3.00;2.53;;;12.20;99.90;;;;;;6293781;22;20176;-79
2021/05/24 09:06:07;;;;;;;3.23;2.50;;;12.30;99.90;;;;;;6293158;22;20270;-79
2021/05/24 09:08:35;;;;;;;2.67;2.37;;;12.30;99.90;;;;;;6293305;22;20160;-77
2021/05/24 09:11:01;;;;;;;4.93;2.60;;;12.40;99.90;;;;;;6294036;22;20198;-78
2021/05/24 09:13:31;;;;;;;3.93;3.00;;;12.40;99.90;;;;;;6294636;22;20176;-80
2021/05/24 09:15:57;;;;;;;3.00;2.70;;;12.40;99.90;;;;;;6295818;22;20206;-80
2021/05/24 09:18:24;;;;;;;3.23;2.50;;;12.50;99.90;;;;;;6296586;22;20307;-79
2021/05/24 09:20:50;;;;;;;4.33;2.63;;;12.40;99.90;;;;;;6296956;22;20781;-78
2021/05/24 09:23:20;;;;;;;3.77;2.90;;;12.50;99.90;;;;;;6294835;22;20183;-77
2021/05/24 09:25:48;;;;;;;4.20;2.90;;;12.60;99.90;;;;;;6295167;22;20550;-78
2021/05/24 09:28:25;;;;;;;5.10;2.90;;;12.70;99.90;;;;;;6292250;22;20168;-76
2021/05/24 09:30:56;;;;;;;4.73;2.93;;;12.60;99.90;;;;;;6294268;22;20261;-78
2021/05/24 09:33:23;;;;;;;6.50;3.10;;;12.70;99.90;;;;;;6295982;22;20260;-78
2021/05/24 09:35:51;;;;;;;4.37;3.33;;;12.70;99.90;;;;;;6295825;22;20712;-77
2021/05/24 09:38:20;;;;;;;6.37;3.40;;;12.80;99.90;;;;;;6294957;22;20819;-78
2021/05/24 09:40:55;;;;;;;4.50;2.93;;;12.90;99.90;;;;;;6296033;22;20222;-78
2021/05/24 09:43:29;;;;;;;3.80;3.00;;;13.00;99.90;;;;;;6295427;22;20175;-78
2021/05/24 09:46:07;;;;;;;3.50;3.03;;;13.10;99.90;;;;;;6294593;22;20443;-78
2021/05/24 09:48:34;;;;;;;4.83;2.87;;;13.20;99.90;;;;;;6294506;22;20159;-77
2021/05/24 09:51:04;;;;;;;4.73;3.73;;;13.30;99.90;;;;;;6295096;22;20176;-77
2021/05/24 09:53:31;;;;;;;4.83;3.70;;;13.40;99.90;;;;;;6295759;22;20381;-77
2021/05/24 09:56:06;;;;;;;3.97;3.20;;;13.50;99.90;;;;;;6293526;22;20176;-75
2021/05/24 09:58:33;;;;;;;3.30;2.90;;;13.50;99.90;;;;;;6292694;22;20192;-75
2021/05/24 10:01:13;;;;;;;5.57;3.20;;;13.30;99.90;;;;;;6294400;22;20715;-76
2021/05/24 10:03:41;;;;;;;3.43;3.00;;;13.30;99.90;;;;;;6294824;22;20255;-77
2021/05/24 10:06:08;;;;;;;4.47;3.30;;;13.30;99.90;;;;;;6293670;22;20266;-77
2021/05/24 10:08:35;;;;;;;4.00;2.63;;;13.20;99.90;;;;;;6294928;22;20203;-78
2021/05/24 10:11:02;;;;;;;3.03;2.70;;;13.20;99.90;;;;;;6293941;22;20179;-78
2021/05/24 10:13:29;;;;;;;3.07;2.67;;;13.30;99.90;;;;;;6294553;22;20172;-78
2021/05/24 10:16:00;;;;;;;3.27;2.77;;;13.00;99.90;;;;;;6293731;22;20576;-78
2021/05/24 10:18:26;;;;;;;3.20;2.83;;;12.90;99.90;;;;;;6294219;22;20187;-77
2021/05/24 10:20:53;;;;;;;4.20;2.60;;;12.90;99.90;;;;;;6294212;22;20175;-78
2021/05/24 10:23:21;;;;;;;3.47;2.60;;;12.80;99.90;;;;;;6294772;22;20176;-78
2021/05/24 10:25:49;;;;;;;3.53;2.47;;;12.80;99.90;;;;;;6293026;22;20623;-78
2021/05/24 10:28:17;;;;;;;5.50;3.07;;;12.70;99.90;;;;;;6294628;22;20179;-78
2021/05/24 10:30:43;;;;;;;3.20;2.90;;;12.70;99.90;;;;;;6294006;22;20877;-78
2021/05/24 10:33:13;;;;;;;4.23;2.60;;;12.70;99.90;;;;;;6293236;22;20180;-78
2021/05/24 10:35:41;;;;;;;2.67;2.47;;;12.70;99.90;;;;;;6294135;22;20180;-78
2021/05/24 10:38:22;;;;;;;2.83;2.63;;;12.70;99.90;;;;;;6294200;22;20196;-80
2021/05/24 10:40:50;;;;;;;2.83;2.53;;;12.70;99.90;;;;;;6293810;22;20168;-76
2021/05/24 10:43:18;;;;;;;3.60;2.70;;;12.60;99.90;;;;;;6294701;22;20172;-77
2021/05/24 10:45:45;;;;;;;3.70;2.40;;;12.60;99.90;;;;;;6294837;22;20176;-77
2021/05/24 10:48:19;;;;;;;4.13;3.40;;;12.50;99.90;;;;;;6293329;22;20572;-78
2021/05/24 10:51:06;;;;;;;3.07;2.63;;;12.50;99.90;;;;;;6293286;22;20415;-78
2021/05/24 10:53:42;;;;;;;3.00;2.70;;;12.50;99.90;;;;;;6293779;22;20172;-77
2021/05/24 10:56:18;;;;;;;2.93;2.63;;;12.50;99.90;;;;;;6293608;22;20179;-78
2021/05/24 10:58:44;;;;;;;2.60;2.30;;;12.40;99.90;;;;;;6293632;22;20579;-79
2021/05/24 11:01:11;;;;;;;4.27;2.80;;;12.40;99.90;;;;;;6292593;22;20757;-77
2021/05/24 11:03:40;;;;;;;3.43;2.47;;;12.40;99.90;;;;;;6293422;22;20176;-77
2021/05/24 11:06:12;;;;;;;2.80;2.60;;;12.40;99.90;;;;;;6294526;22;20271;-76
2021/05/24 11:08:41;;;;;;;2.57;2.37;;;12.40;99.90;;;;;;6293648;22;20538;-77
2021/05/24 11:11:19;;;;;;;2.70;2.10;;;12.50;99.90;;;;;;6294573;22;20258;-76
2021/05/24 11:13:56;;;;;;;2.63;2.43;;;12.60;99.90;;;;;;6295704;22;20175;-77
2021/05/24 11:16:23;;;;;;;3.33;2.47;;;12.80;99.90;;;;;;6293538;22;20182;-77
2021/05/24 11:18:49;;;;;;;4.20;2.57;;;13.00;99.90;;;;;;6294773;22;20200;-77
2021/05/24 11:21:24;;;;;;;2.97;2.73;;;13.10;99.90;;;;;;6294761;22;20171;-77
2021/05/24 11:26:44;;;;;;;2.63;1.93;;;13.20;99.90;;;;;;6263326;22;20237;-75
2021/05/24 11:29:14;;;;;;;2.07;1.97;;;13.30;99.90;;;;;;6293666;22;20179;-76
2021/05/24 11:31:52;;;;;;;3.13;2.30;;;13.60;99.90;;;;;;6293901;22;20530;-76
2021/05/24 11:34:34;;;;;;;2.60;2.23;;;13.70;99.90;;;;;;6294179;22;20578;-76
2021/05/24 11:37:03;;;;;;;2.63;2.17;;;13.80;99.90;;;;;;6291254;22;20210;-75
2021/05/24 11:39:32;;;;;;;2.43;1.70;;;13.80;99.90;;;;;;6293605;22;20600;-77
2021/05/24 11:42:01;;;;;;;3.20;2.33;;;13.90;99.90;;;;;;6293691;22;20248;-77
2021/05/24 11:44:33;;;;;;;2.43;1.90;;;14.20;99.90;;;;;;6294589;22;20211;-77
2021/05/24 11:47:00;;;;;;;2.80;2.00;;;14.60;99.90;;;;;;6293638;22;20175;-76
2021/05/24 11:49:33;;;;;;;3.03;2.10;;;14.70;99.90;;;;;;6293678;22;20622;-78
2021/05/24 11:51:59;;;;;;;1.63;1.53;;;14.70;99.90;;;;;;6294299;22;20180;-76
2021/05/24 11:54:26;;;;;;;1.93;1.60;;;14.90;99.90;;;;;;6293960;22;20176;-76
2021/05/24 11:56:55;;;;;;;2.53;1.80;;;15.00;99.90;;;;;;6293733;22;20837;-76
2021/05/24 11:59:23;;;;;;;2.47;1.73;;;14.90;99.90;;;;;;6293646;22;20663;-76
2021/05/24 12:01:51;;;;;;;2.50;1.57;;;15.00;99.90;;;;;;6293882;22;20176;-77
2021/05/24 12:04:20;;;;;;;2.07;1.83;;;14.80;99.90;;;;;;6292568;22;20466;-76
2021/05/24 12:06:49;;;;;;;3.53;2.20;;;14.60;99.90;;;;;;6293532;22;20191;-76
2021/05/24 12:09:33;;;;;;;1.87;1.70;;;14.60;99.90;;;;;;6293827;22;20169;-77
2021/05/24 12:12:01;;;;;;;2.20;1.60;;;14.70;99.90;;;;;;6293867;22;20172;-76
2021/05/24 12:14:28;;;;;;;2.33;2.00;;;14.70;99.90;;;;;;6294235;22;20225;-78
2021/05/24 12:16:55;;;;;;;3.10;2.03;;;14.70;99.90;;;;;;6290753;22;20172;-76
2021/05/24 12:19:23;;;;;;;2.10;1.90;;;14.60;99.90;;;;;;6292142;22;20199;-78
2021/05/24 12:21:51;;;;;;;2.07;1.90;;;14.50;99.90;;;;;;6294440;22;20180;-79
2021/05/24 12:24:19;;;;;;;1.20;1.10;;;14.50;99.90;;;;;;6293372;22;20175;-77
2021/05/24 12:26:48;;;;;;;2.83;0.90;;;14.30;99.90;;;;;;6294302;22;20172;-79
2021/05/24 12:29:21;;;;;;;4.43;1.07;;;14.10;99.90;;;;;;6294643;22;20168;-79
2021/05/24 12:31:50;;;;;;;4.50;1.17;;;13.90;99.90;;;;;;6294011;22;20335;-81
2021/05/24 12:34:20;;;;;;;5.63;1.60;;;13.70;99.90;;;;;;6292605;22;20184;-77
2021/05/24 12:36:53;;;;;;;6.70;1.50;;;13.50;99.90;;;;;;6294992;22;20168;-78
2021/05/24 12:39:21;;;;;;;6.80;2.30;;;13.40;99.90;;;;;;6294212;22;20284;-78
2021/05/24 12:41:50;;;;;;;6.70;2.90;;;13.20;99.90;;;;;;6292819;22;20176;-78
2021/05/24 12:44:22;;;;;;;10.20;3.53;;;13.00;99.90;;;;;;6293706;22;20653;-80
2021/05/24 12:46:51;;;;;;;8.97;3.13;;;12.80;99.90;;;;;;6295089;22;20164;-79
2021/05/24 12:49:20;;;;;;;8.53;2.10;;;12.80;99.90;;;;;;6296841;22;20217;-79
2021/05/24 12:51:56;;;;;;;7.40;1.70;;;12.70;99.90;;;;;;6297108;22;20179;-78